createdAt,value
2018-10-09T00:00:08.964Z,97.42
2018-10-09T00:01:17.016Z,97.42
2018-10-09T00:02:25.084Z,97.52
2018-10-09T00:03:33.149Z,97.23
2018-10-09T00:04:41.204Z,97.61
2018-10-09T00:05:49.270Z,97.13
2018-10-09T00:06:57.339Z,97.32
2018-10-09T00:08:05.400Z,97.13
2018-10-09T00:09:13.467Z,97.42
2018-10-09T00:10:21.525Z,97.32
2018-10-09T00:11:29.594Z,97.42
2018-10-09T00:12:37.660Z,97.32
2018-10-09T00:13:45.725Z,97.23
2018-10-09T00:14:53.785Z,97.13
2018-10-09T00:16:01.861Z,97.23
2018-10-09T00:17:09.932Z,97.13
2018-10-09T00:18:17.994Z,97.42
2018-10-09T00:19:26.072Z,97.23
2018-10-09T00:20:34.117Z,96.66
2018-10-09T00:21:42.175Z,96.84
2018-10-09T00:22:50.249Z,96.94
2018-10-09T00:23:58.313Z,96.84
2018-10-09T00:25:06.383Z,96.84
2018-10-09T00:26:14.551Z,96.84
2018-10-09T00:27:22.495Z,96.75
2018-10-09T00:28:30.566Z,96.66
2018-10-09T00:29:38.621Z,97.03
2018-10-09T00:30:46.672Z,96.56
2018-10-09T00:31:54.756Z,96.56
2018-10-09T00:33:02.852Z,96.84
2018-10-09T00:34:10.894Z,96.84
2018-10-09T00:35:18.965Z,97.03
2018-10-09T00:36:27.009Z,96.75
2018-10-09T00:37:35.088Z,97.03
2018-10-09T00:38:43.149Z,96.94
2018-10-09T00:39:51.201Z,96.94
2018-10-09T00:40:59.274Z,96.84
2018-10-09T00:42:07.333Z,97.03
2018-10-09T00:43:15.413Z,96.75
2018-10-09T00:44:23.463Z,96.84
2018-10-09T00:45:31.540Z,97.42
2018-10-09T00:46:39.600Z,97.23
2018-10-09T00:47:47.659Z,96.94
2018-10-09T00:48:55.732Z,96.84
2018-10-09T00:50:03.797Z,97.23
2018-10-09T00:51:11.872Z,97.32
2018-10-09T00:52:19.928Z,97.23
2018-10-09T00:53:27.986Z,97.23
2018-10-09T00:54:36.025Z,96.84
2018-10-09T00:55:44.122Z,97.03
2018-10-09T00:56:52.172Z,97.32
2018-10-09T00:58:00.248Z,97.32
2018-10-09T00:59:08.328Z,96.84
2018-10-09T01:00:16.356Z,96.84
2018-10-09T01:01:24.452Z,97.03
2018-10-09T01:02:32.534Z,97.13
2018-10-09T01:03:40.589Z,97.13
2018-10-09T01:04:48.639Z,96.84
2018-10-09T01:05:56.699Z,96.66
2018-10-09T01:07:04.795Z,96.75
2018-10-09T01:08:12.846Z,96.66
2018-10-09T01:09:20.913Z,96.66
2018-10-09T01:10:28.962Z,96.84
2018-10-09T01:11:37.015Z,97.03
2018-10-09T01:12:45.081Z,96.46
2018-10-09T01:13:53.154Z,96.17
2018-10-09T01:15:01.216Z,96.37
2018-10-09T01:16:09.272Z,96.17
2018-10-09T01:17:17.347Z,96.17
2018-10-09T01:18:25.402Z,96.46
2018-10-09T01:19:33.498Z,96.66
2018-10-09T01:20:41.549Z,96.84
2018-10-09T01:21:49.595Z,96.17
2018-10-09T01:22:57.670Z,96.08
2018-10-09T01:24:05.739Z,96.13
2018-10-09T01:25:13.803Z,96.17
2018-10-09T01:26:21.875Z,96.84
2018-10-09T01:27:29.932Z,96.27
2018-10-09T01:28:38.004Z,96.08
2018-10-09T01:29:46.023Z,96.08
2018-10-09T01:30:54.118Z,96.56
2018-10-09T01:32:02.185Z,96.56
2018-10-09T01:33:10.248Z,96.37
2018-10-09T01:34:18.314Z,96.37
2018-10-09T01:35:26.349Z,96.37
2018-10-09T01:36:34.451Z,96.27
2018-10-09T01:37:42.513Z,96.08
2018-10-09T01:38:50.579Z,96.27
2018-10-09T01:39:58.653Z,96.56
2018-10-09T01:41:06.684Z,96.37
2018-10-09T01:42:14.772Z,96.46
2018-10-09T01:43:22.824Z,97.13
2018-10-09T01:44:30.904Z,97.03
2018-10-09T01:45:38.969Z,96.17
2018-10-09T01:46:47.022Z,96.27
2018-10-09T01:47:55.092Z,96.27
2018-10-09T01:49:03.164Z,96.84
2018-10-09T01:50:11.234Z,96.08
2018-10-09T01:51:19.287Z,95.89
2018-10-09T01:52:27.350Z,96.66
2018-10-09T01:53:35.502Z,96.37
2018-10-09T01:54:43.480Z,96.66
2018-10-09T01:55:51.558Z,95.79
2018-10-09T01:56:59.626Z,96.66
2018-10-09T01:58:07.673Z,95.70
2018-10-09T01:59:15.741Z,95.51
2018-10-09T02:00:23.807Z,95.32
2018-10-09T02:01:31.882Z,95.32
2018-10-09T02:02:39.929Z,95.79
2018-10-09T02:03:48.012Z,95.61
2018-10-09T02:04:56.047Z,95.32
2018-10-09T02:06:04.129Z,95.32
2018-10-09T02:07:12.201Z,95.22
2018-10-09T02:08:20.267Z,95.12
2018-10-09T02:09:28.341Z,95.61
2018-10-09T02:10:36.363Z,95.70
2018-10-09T02:11:44.460Z,94.55
2018-10-09T02:12:52.521Z,95.32
2018-10-09T02:14:00.579Z,95.22
2018-10-09T02:15:08.660Z,95.51
2018-10-09T02:16:16.702Z,94.74
2018-10-09T02:17:24.786Z,94.65
2018-10-09T02:18:32.843Z,94.74
2018-10-09T02:19:41.035Z,94.65
2018-10-09T02:20:48.967Z,94.93
2018-10-09T02:21:57.032Z,94.84
2018-10-09T02:23:05.091Z,94.55
2018-10-09T02:24:13.166Z,94.07
2018-10-09T02:25:21.224Z,94.74
2018-10-09T02:26:29.296Z,94.17
2018-10-09T02:27:37.356Z,95.03
2018-10-09T02:28:45.427Z,94.74
2018-10-09T02:29:53.486Z,95.22
2018-10-09T02:31:01.594Z,94.89
2018-10-09T02:32:09.621Z,95.70
2018-10-09T02:33:17.690Z,95.46
2018-10-09T02:34:25.750Z,95.32
2018-10-09T02:35:33.814Z,95.41
2018-10-09T02:36:41.875Z,95.41
2018-10-09T02:37:49.946Z,95.79
2018-10-09T02:38:58.007Z,95.65
2018-10-09T02:40:06.049Z,95.51
2018-10-09T02:41:14.146Z,95.61
2018-10-09T02:42:22.201Z,96.17
2018-10-09T02:43:30.262Z,96.17
2018-10-09T02:44:38.341Z,95.56
2018-10-09T02:45:46.390Z,93.41
2018-10-09T02:46:54.454Z,93.79
2018-10-09T02:48:02.511Z,95.12
2018-10-09T02:49:10.594Z,94.93
2018-10-09T02:50:18.656Z,95.61
2018-10-09T02:51:26.691Z,95.12
2018-10-09T02:52:34.788Z,95.46
2018-10-09T02:53:42.852Z,95.89
2018-10-09T02:54:50.913Z,94.93
2018-10-09T02:55:58.979Z,94.79
2018-10-09T02:57:07.045Z,93.60
2018-10-09T02:58:15.108Z,94.27
2018-10-09T02:59:23.178Z,94.46
2018-10-09T03:00:31.240Z,94.31
2018-10-09T03:01:39.305Z,94.79
2018-10-09T03:02:47.375Z,94.70
2018-10-09T03:03:55.440Z,95.56
2018-10-09T03:05:03.500Z,95.36
2018-10-09T03:06:11.577Z,95.32
2018-10-09T03:07:19.635Z,94.93
2018-10-09T03:08:27.764Z,94.36
2018-10-09T03:09:35.749Z,94.74
2018-10-09T03:10:43.828Z,95.17
2018-10-09T03:11:51.895Z,95.46
2018-10-09T03:12:59.961Z,95.41
2018-10-09T03:14:08.032Z,95.41
2018-10-09T03:15:16.060Z,95.32
2018-10-09T03:16:24.157Z,95.36
2018-10-09T03:17:32.218Z,95.65
2018-10-09T03:18:40.276Z,95.56
2018-10-09T03:19:48.348Z,95.32
2018-10-09T03:20:56.381Z,95.51
2018-10-09T03:22:04.570Z,95.51
2018-10-09T03:23:12.540Z,95.94
2018-10-09T03:24:20.602Z,95.70
2018-10-09T03:25:28.683Z,95.32
2018-10-09T03:26:36.711Z,95.70
2018-10-09T03:27:44.794Z,95.12
2018-10-09T03:28:52.863Z,95.32
2018-10-09T03:30:00.943Z,95.65
2018-10-09T03:31:09.000Z,95.51
2018-10-09T03:32:17.072Z,95.98
2018-10-09T03:33:25.133Z,95.32
2018-10-09T03:34:33.187Z,96.08
2018-10-09T03:35:41.264Z,95.79
2018-10-09T03:36:49.320Z,95.98
2018-10-09T03:37:57.384Z,95.61
2018-10-09T03:39:05.456Z,95.89
2018-10-09T03:40:13.524Z,95.84
2018-10-09T03:41:21.586Z,95.98
2018-10-09T03:42:29.644Z,95.84
2018-10-09T03:43:37.716Z,95.98
2018-10-09T03:44:45.763Z,95.70
2018-10-09T03:45:53.837Z,95.65
2018-10-09T03:47:01.902Z,95.84
2018-10-09T03:48:09.967Z,95.46
2018-10-09T03:49:18.037Z,96.08
2018-10-09T03:50:26.069Z,96.37
2018-10-09T03:51:34.170Z,96.13
2018-10-09T03:52:42.227Z,96.08
2018-10-09T03:53:50.289Z,96.27
2018-10-09T03:54:58.360Z,96.37
2018-10-09T03:56:06.392Z,96.42
2018-10-09T03:57:14.481Z,95.98
2018-10-09T03:58:22.553Z,96.13
2018-10-09T03:59:30.617Z,96.03
2018-10-09T04:00:38.672Z,96.17
2018-10-09T04:01:46.736Z,95.75
2018-10-09T04:02:54.823Z,95.79
2018-10-09T04:04:02.873Z,96.80
2018-10-09T04:05:10.948Z,96.66
2018-10-09T04:06:18.998Z,96.56
2018-10-09T04:07:27.069Z,96.46
2018-10-09T04:08:35.129Z,96.66
2018-10-09T04:09:43.203Z,96.75
2018-10-09T04:10:51.266Z,96.27
2018-10-09T04:11:59.325Z,96.03
2018-10-09T04:13:07.403Z,96.89
2018-10-09T04:14:15.455Z,96.51
2018-10-09T04:15:23.524Z,96.84
2018-10-09T04:16:31.584Z,96.37
2018-10-09T04:17:39.659Z,96.66
2018-10-09T04:18:47.740Z,97.23
2018-10-09T04:19:55.789Z,96.22
2018-10-09T04:21:03.840Z,95.79
2018-10-09T04:22:11.923Z,95.79
2018-10-09T04:23:19.987Z,96.89
2018-10-09T04:24:28.046Z,96.56
2018-10-09T04:25:36.089Z,96.46
2018-10-09T04:26:44.178Z,96.46
2018-10-09T04:27:52.241Z,96.51
2018-10-09T04:29:00.310Z,96.84
2018-10-09T04:30:08.366Z,96.66
2018-10-09T04:31:16.415Z,96.46
2018-10-09T04:32:24.490Z,96.84
2018-10-09T04:33:32.565Z,96.66
2018-10-09T04:34:40.627Z,96.70
2018-10-09T04:35:48.747Z,96.66
2018-10-09T04:36:56.748Z,96.70
2018-10-09T04:38:05.017Z,96.66
2018-10-09T04:39:12.884Z,96.56
2018-10-09T04:40:20.967Z,95.98
2018-10-09T04:41:29.242Z,95.70
2018-10-09T04:42:37.095Z,96.17
2018-10-09T04:43:45.151Z,95.89
2018-10-09T04:44:53.218Z,95.89
2018-10-09T04:46:01.519Z,96.99
2018-10-09T04:47:09.343Z,96.84
2018-10-09T04:48:17.403Z,96.17
2018-10-09T04:49:25.467Z,96.46
2018-10-09T04:50:33.796Z,96.94
2018-10-09T04:51:41.607Z,96.75
2018-10-09T04:52:49.671Z,96.56
2018-10-09T04:53:57.737Z,96.94
2018-10-09T04:55:05.795Z,97.13
2018-10-09T04:56:13.863Z,97.03
2018-10-09T04:57:21.925Z,97.03
2018-10-09T04:58:30.050Z,97.28
2018-10-09T04:59:38.076Z,97.37
2018-10-09T05:00:46.254Z,96.99
2018-10-09T05:01:54.196Z,97.03
2018-10-09T05:03:02.255Z,96.89
2018-10-09T05:04:10.385Z,96.84
2018-10-09T05:05:18.377Z,96.61
2018-10-09T05:06:26.911Z,96.46
2018-10-09T05:07:34.515Z,96.84
2018-10-09T05:08:42.583Z,96.46
2018-10-09T05:09:50.646Z,96.37
2018-10-09T05:10:59.008Z,96.17
2018-10-09T05:12:06.892Z,96.17
2018-10-09T05:13:14.831Z,96.17
2018-10-09T05:14:22.909Z,96.84
2018-10-09T05:15:30.971Z,96.99
2018-10-09T05:16:40.196Z,96.84
2018-10-09T05:17:47.413Z,96.75
2018-10-09T05:18:55.832Z,97.18
2018-10-09T05:20:03.346Z,96.37
2018-10-09T05:21:11.282Z,96.46
2018-10-09T05:22:19.358Z,96.94
2018-10-09T05:23:27.432Z,96.08
2018-10-09T05:24:35.492Z,96.17
2018-10-09T05:25:43.552Z,96.66
2018-10-09T05:26:51.634Z,96.46
2018-10-09T05:27:59.684Z,96.56
2018-10-09T05:29:07.774Z,95.98
2018-10-09T05:30:15.820Z,96.17
2018-10-09T05:31:23.930Z,96.84
2018-10-09T05:32:31.959Z,97.13
2018-10-09T05:33:40.022Z,97.23
2018-10-09T05:34:48.071Z,96.84
2018-10-09T05:35:56.122Z,96.94
2018-10-09T05:37:04.207Z,96.99
2018-10-09T05:38:12.275Z,97.23
2018-10-09T05:39:20.339Z,97.66
2018-10-09T05:40:28.399Z,97.13
2018-10-09T05:41:36.454Z,96.89
2018-10-09T05:42:44.542Z,96.84
2018-10-09T05:43:52.600Z,96.46
2018-10-09T05:45:00.676Z,97.37
2018-10-09T05:46:08.739Z,97.42
2018-10-09T05:47:16.787Z,97.23
2018-10-09T05:48:24.860Z,97.32
2018-10-09T05:49:32.927Z,97.52
2018-10-09T05:50:41.027Z,97.23
2018-10-09T05:51:49.058Z,97.08
2018-10-09T05:52:57.123Z,97.18
2018-10-09T05:54:05.182Z,96.42
2018-10-09T05:55:13.266Z,96.42
2018-10-09T05:56:21.326Z,96.27
2018-10-09T05:57:29.386Z,96.94
2018-10-09T05:58:37.480Z,96.66
2018-10-09T05:59:45.525Z,97.37
2018-10-09T06:00:53.573Z,97.08
2018-10-09T06:02:01.661Z,97.56
2018-10-09T06:03:09.728Z,97.18
2018-10-09T06:04:17.784Z,97.75
2018-10-09T06:05:25.850Z,97.66
2018-10-09T06:06:33.915Z,97.37
2018-10-09T06:07:41.986Z,97.37
2018-10-09T06:08:50.045Z,97.08
2018-10-09T06:09:58.112Z,96.99
2018-10-09T06:11:06.161Z,96.80
2018-10-09T06:12:14.239Z,97.18
2018-10-09T06:13:22.314Z,96.22
2018-10-09T06:14:30.377Z,97.18
2018-10-09T06:15:38.569Z,97.28
2018-10-09T06:16:46.500Z,97.47
2018-10-09T06:17:54.580Z,97.85
2018-10-09T06:19:02.631Z,97.66
2018-10-09T06:20:10.705Z,97.08
2018-10-09T06:21:18.763Z,97.56
2018-10-09T06:22:26.833Z,98.04
2018-10-09T06:23:34.895Z,97.37
2018-10-09T06:24:42.968Z,97.18
2018-10-09T06:25:51.032Z,97.28
2018-10-09T06:26:59.101Z,96.99
2018-10-09T06:28:07.257Z,97.37
2018-10-09T06:29:15.249Z,96.89
2018-10-09T06:30:23.296Z,96.89
2018-10-09T06:31:31.358Z,96.80
2018-10-09T06:32:39.434Z,96.89
2018-10-09T06:33:47.519Z,96.89
2018-10-09T06:34:55.550Z,96.99
2018-10-09T06:36:03.617Z,97.04
2018-10-09T06:37:11.998Z,96.89
2018-10-09T06:38:19.760Z,96.70
2018-10-09T06:39:27.815Z,96.99
2018-10-09T06:40:35.943Z,96.80
2018-10-09T06:41:43.956Z,97.13
2018-10-09T06:42:52.053Z,96.13
2018-10-09T06:44:00.091Z,95.94
2018-10-09T06:45:08.149Z,96.75
2018-10-09T06:46:16.217Z,96.18
2018-10-09T06:47:24.358Z,96.84
2018-10-09T06:48:32.353Z,96.56
2018-10-09T06:49:40.420Z,96.37
2018-10-09T06:50:48.473Z,96.27
2018-10-09T06:51:56.525Z,96.75
2018-10-09T06:53:04.609Z,96.56
2018-10-09T06:54:12.862Z,96.18
2018-10-09T06:55:20.750Z,96.08
2018-10-09T06:56:28.820Z,96.18
2018-10-09T06:57:36.865Z,96.18
2018-10-09T06:58:44.947Z,95.70
2018-10-09T06:59:53.006Z,95.32
2018-10-09T07:01:01.067Z,94.55
2018-10-09T07:02:09.132Z,94.46
2018-10-09T07:03:17.208Z,95.12
2018-10-09T07:04:25.277Z,94.26
2018-10-09T07:05:33.339Z,94.17
2018-10-09T07:06:41.410Z,93.98
2018-10-09T07:07:49.467Z,93.79
2018-10-09T07:08:57.540Z,94.46
2018-10-09T07:10:05.592Z,94.26
2018-10-09T07:11:13.791Z,93.50
2018-10-09T07:12:21.734Z,92.45
2018-10-09T07:13:29.798Z,93.40
2018-10-09T07:14:37.875Z,92.93
2018-10-09T07:15:45.932Z,92.74
2018-10-09T07:16:54.059Z,92.83
2018-10-09T07:18:02.078Z,92.93
2018-10-09T07:19:10.127Z,93.98
2018-10-09T07:20:18.203Z,94.17
2018-10-09T07:21:26.256Z,94.17
2018-10-09T07:22:34.326Z,93.88
2018-10-09T07:23:42.400Z,92.25
2018-10-09T07:24:50.473Z,91.49
2018-10-09T07:25:58.534Z,91.59
2018-10-09T07:27:06.566Z,91.88
2018-10-09T07:28:14.675Z,92.16
2018-10-09T07:29:22.743Z,91.59
2018-10-09T07:30:30.782Z,91.20
2018-10-09T07:31:38.879Z,90.44
2018-10-09T07:32:46.915Z,87.76
2018-10-09T07:33:55.009Z,88.53
2018-10-09T07:35:03.061Z,87.76
2018-10-09T07:36:11.133Z,88.91
2018-10-09T07:37:19.229Z,88.09
2018-10-09T07:38:27.257Z,89.29
2018-10-09T07:39:35.328Z,88.95
2018-10-09T07:40:43.389Z,89.05
2018-10-09T07:41:51.478Z,88.76
2018-10-09T07:42:59.524Z,89.72
2018-10-09T07:44:07.727Z,89.53
2018-10-09T07:45:15.667Z,89.72
2018-10-09T07:46:23.750Z,89.05
2018-10-09T07:47:31.790Z,88.67
2018-10-09T07:48:39.870Z,88.00
2018-10-09T07:49:47.932Z,88.09
2018-10-09T07:50:55.979Z,88.19
2018-10-09T07:52:04.062Z,88.81
2018-10-09T07:53:12.130Z,87.85
2018-10-09T07:54:20.199Z,87.08
2018-10-09T07:55:28.256Z,87.08
2018-10-09T07:56:36.293Z,86.90
2018-10-09T07:57:44.389Z,86.90
2018-10-09T07:58:52.459Z,88.62
2018-10-09T08:00:00.524Z,87.85
2018-10-09T08:01:08.607Z,87.66
2018-10-09T08:02:16.655Z,88.04
2018-10-09T08:03:24.726Z,88.13
2018-10-09T08:04:32.801Z,87.27
2018-10-09T08:05:40.869Z,87.18
2018-10-09T08:06:48.928Z,88.23
2018-10-09T08:07:56.987Z,86.22
2018-10-09T08:09:05.070Z,87.08
2018-10-09T08:10:13.133Z,87.18
2018-10-09T08:11:21.191Z,86.32
2018-10-09T08:12:29.267Z,86.90
2018-10-09T08:13:37.318Z,87.37
2018-10-09T08:14:45.398Z,86.99
2018-10-09T08:15:53.463Z,87.27
2018-10-09T08:17:01.538Z,87.76
2018-10-09T08:18:09.601Z,87.08
2018-10-09T08:19:17.664Z,87.66
2018-10-09T08:20:25.733Z,87.76
2018-10-09T08:21:33.799Z,86.84
2018-10-09T08:22:41.992Z,87.37
2018-10-09T08:23:49.942Z,87.51
2018-10-09T08:24:57.997Z,85.69
2018-10-09T08:26:06.045Z,85.02
2018-10-09T08:27:14.137Z,85.88
2018-10-09T08:28:22.191Z,85.02
2018-10-09T08:29:30.277Z,84.83
2018-10-09T08:30:38.342Z,84.74
2018-10-09T08:31:46.372Z,85.50
2018-10-09T08:32:54.472Z,85.41
2018-10-09T08:34:02.545Z,84.26
2018-10-09T08:35:10.604Z,83.59
2018-10-09T08:36:18.673Z,82.82
2018-10-09T08:37:26.836Z,83.78
2018-10-09T08:38:34.815Z,84.26
2018-10-09T08:39:42.876Z,83.78
2018-10-09T08:40:50.941Z,83.78
2018-10-09T08:41:59.007Z,83.11
2018-10-09T08:43:07.069Z,82.92
2018-10-09T08:44:15.157Z,83.97
2018-10-09T08:45:23.209Z,83.11
2018-10-09T08:46:31.277Z,83.49
2018-10-09T08:47:39.339Z,83.68
2018-10-09T08:48:47.393Z,82.73
2018-10-09T08:49:55.469Z,82.53
2018-10-09T08:51:03.557Z,83.11
2018-10-09T08:52:11.611Z,83.01
2018-10-09T08:53:19.671Z,82.53
2018-10-09T08:54:27.760Z,82.43
2018-10-09T08:55:35.812Z,83.01
2018-10-09T08:56:43.879Z,82.67
2018-10-09T08:57:51.947Z,83.15
2018-10-09T08:59:00.033Z,83.05
2018-10-09T09:00:08.085Z,83.53
2018-10-09T09:01:16.121Z,83.05
2018-10-09T09:02:24.213Z,82.96
2018-10-09T09:03:32.316Z,81.90
2018-10-09T09:04:40.356Z,81.52
2018-10-09T09:05:48.414Z,82.19
2018-10-09T09:06:56.454Z,82.00
2018-10-09T09:08:04.564Z,80.85
2018-10-09T09:09:12.632Z,80.85
2018-10-09T09:10:20.694Z,81.23
2018-10-09T09:11:28.763Z,80.27
2018-10-09T09:12:36.818Z,80.76
2018-10-09T09:13:44.953Z,81.81
2018-10-09T09:14:52.963Z,80.85
2018-10-09T09:16:01.030Z,80.27
2018-10-09T09:17:09.090Z,80.76
2018-10-09T09:18:17.152Z,81.04
2018-10-09T09:19:25.246Z,81.43
2018-10-09T09:20:33.367Z,80.66
2018-10-09T09:21:41.375Z,79.99
2018-10-09T09:22:49.436Z,80.66
2018-10-09T09:23:57.512Z,80.76
2018-10-09T09:25:05.571Z,81.23
2018-10-09T09:26:13.728Z,80.99
2018-10-09T09:27:21.741Z,79.26
2018-10-09T09:28:29.789Z,79.64
2018-10-09T09:29:37.854Z,78.40
2018-10-09T09:30:45.898Z,78.69
2018-10-09T09:31:53.981Z,78.78
2018-10-09T09:33:02.092Z,79.07
2018-10-09T09:34:10.122Z,78.88
2018-10-09T09:35:18.181Z,79.93
2018-10-09T09:36:26.232Z,79.36
2018-10-09T09:37:34.313Z,78.40
2018-10-09T09:38:42.390Z,78.69
2018-10-09T09:39:50.464Z,79.13
2018-10-09T09:40:58.536Z,79.99
2018-10-09T09:42:06.592Z,79.41
2018-10-09T09:43:14.661Z,80.85
2018-10-09T09:44:22.734Z,81.43
2018-10-09T09:45:30.807Z,79.99
2018-10-09T09:46:38.866Z,78.69
2018-10-09T09:47:46.928Z,79.41
2018-10-09T09:48:55.006Z,80.43
2018-10-09T09:50:03.068Z,79.66
2018-10-09T09:51:11.154Z,79.95
2018-10-09T09:52:19.212Z,80.18
2018-10-09T09:53:27.278Z,81.23
2018-10-09T09:54:35.356Z,81.52
2018-10-09T09:55:43.421Z,80.08
2018-10-09T09:56:51.489Z,77.53
2018-10-09T09:57:59.644Z,77.06
2018-10-09T09:59:07.750Z,78.40
2018-10-09T10:00:15.692Z,78.69
2018-10-09T10:01:23.764Z,77.76
2018-10-09T10:02:31.838Z,77.48
2018-10-09T10:03:39.904Z,77.00
2018-10-09T10:04:47.971Z,77.09
2018-10-09T10:05:56.021Z,77.00
2018-10-09T10:07:04.111Z,76.94
2018-10-09T10:08:12.168Z,77.13
2018-10-09T10:09:20.310Z,76.17
2018-10-09T10:10:28.435Z,75.89
2018-10-09T10:11:36.350Z,75.02
2018-10-09T10:12:44.455Z,74.83
2018-10-09T10:13:52.532Z,74.44
2018-10-09T10:15:00.591Z,76.12
2018-10-09T10:16:08.655Z,75.21
2018-10-09T10:17:16.717Z,72.91
2018-10-09T10:18:24.802Z,76.23
2018-10-09T10:19:32.873Z,77.00
2018-10-09T10:20:43.561Z,76.52
2018-10-09T10:21:51.619Z,75.40
2018-10-09T10:23:00.694Z,76.56
2018-10-09T10:36:47.170Z,74.26
2018-10-09T10:37:55.129Z,76.07
2018-10-09T10:39:03.199Z,76.17
2018-10-09T10:40:11.255Z,75.54
2018-10-09T10:41:19.334Z,76.31
2018-10-09T10:42:27.413Z,75.92
2018-10-09T10:43:35.460Z,74.71
2018-10-09T10:44:43.540Z,72.69
2018-10-09T10:45:51.608Z,73.33
2018-10-09T10:46:59.665Z,73.52
2018-10-09T10:48:07.751Z,73.43
2018-10-09T10:49:15.835Z,74.77
2018-10-09T10:50:23.872Z,74.68
2018-10-09T10:51:31.954Z,75.35
2018-10-09T10:52:40.029Z,73.04
2018-10-09T10:53:48.102Z,73.24
2018-10-09T10:54:56.213Z,74.19
2018-10-09T10:56:04.238Z,74.77
2018-10-09T10:57:12.296Z,74.77
2018-10-09T10:58:20.373Z,73.52
2018-10-09T10:59:28.471Z,73.27
2018-10-09T11:00:36.477Z,73.94
2018-10-09T11:01:44.628Z,74.52
2018-10-09T11:02:52.655Z,73.27
2018-10-09T11:04:00.718Z,74.04
2018-10-09T11:05:08.790Z,74.37
2018-10-09T11:06:16.872Z,72.16
2018-10-09T11:07:24.946Z,71.87
2018-10-09T11:08:33.035Z,72.54
2018-10-09T11:09:41.060Z,72.64
2018-10-09T11:10:49.139Z,71.58
2018-10-09T11:11:57.218Z,72.25
2018-10-09T11:13:05.271Z,73.37
2018-10-09T11:14:13.355Z,72.92
2018-10-09T11:15:21.425Z,72.92
2018-10-09T11:16:29.492Z,73.11
2018-10-09T11:17:37.581Z,71.58
2018-10-09T11:18:45.643Z,71.00
2018-10-09T11:19:53.707Z,71.87
2018-10-09T11:21:01.806Z,72.73
2018-10-09T11:22:09.847Z,71.67
2018-10-09T11:23:18.113Z,70.81
2018-10-09T11:24:25.984Z,71.29
2018-10-09T11:25:34.085Z,71.39
2018-10-09T11:26:42.123Z,71.48
2018-10-09T11:27:50.207Z,71.87
2018-10-09T11:28:58.271Z,71.87
2018-10-09T11:30:06.337Z,72.31
2018-10-09T11:31:14.413Z,74.01
2018-10-09T11:32:22.504Z,74.90
2018-10-09T11:33:30.556Z,75.29
2018-10-09T11:34:38.632Z,75.00
2018-10-09T11:35:46.681Z,75.32
2018-10-09T11:36:54.775Z,72.44
2018-10-09T11:38:02.842Z,71.96
2018-10-09T11:39:10.910Z,72.29
2018-10-09T11:40:18.989Z,70.56
2018-10-09T11:41:27.070Z,72.48
2018-10-09T11:42:35.166Z,71.71
2018-10-09T11:43:43.185Z,71.81
2018-10-09T11:44:51.277Z,71.33
2018-10-09T11:45:59.335Z,72.96
2018-10-09T11:47:07.413Z,71.04
2018-10-09T11:48:15.469Z,71.77
2018-10-09T11:49:23.552Z,73.11
2018-10-09T11:50:31.614Z,73.66
2018-10-09T11:51:39.696Z,73.91
2018-10-09T11:52:47.752Z,75.35
2018-10-09T11:53:55.836Z,74.87
2018-10-09T11:55:03.910Z,76.02
2018-10-09T11:56:11.985Z,75.15
2018-10-09T11:57:20.048Z,76.56
2018-10-09T11:58:28.122Z,76.75
2018-10-09T11:59:36.165Z,76.40
2018-10-09T12:00:44.266Z,76.59
2018-10-09T12:01:52.323Z,76.40
2018-10-09T12:03:00.402Z,76.79
2018-10-09T12:04:08.464Z,76.12
2018-10-09T12:05:16.505Z,75.82
2018-10-09T12:06:24.593Z,75.25
2018-10-09T12:07:32.684Z,74.87
2018-10-09T12:08:40.735Z,75.45
2018-10-09T12:09:48.804Z,75.92
2018-10-09T12:10:56.873Z,75.25
2018-10-09T12:12:04.940Z,74.68
2018-10-09T12:13:13.015Z,74.58
2018-10-09T12:14:21.080Z,76.59
2018-10-09T12:15:29.157Z,76.40
2018-10-09T12:16:37.220Z,74.58
2018-10-09T12:17:45.295Z,75.63
2018-10-09T12:18:53.359Z,76.79
2018-10-09T12:20:01.436Z,77.84
2018-10-09T12:21:09.486Z,76.73
2018-10-09T12:22:17.561Z,76.15
2018-10-09T12:23:25.627Z,76.25
2018-10-09T12:24:33.700Z,75.77
2018-10-09T12:25:41.768Z,74.04
2018-10-09T12:26:49.840Z,73.85
2018-10-09T12:27:57.915Z,72.89
2018-10-09T12:29:05.964Z,74.23
2018-10-09T12:30:14.047Z,74.62
2018-10-09T12:31:22.119Z,74.90
2018-10-09T12:32:30.182Z,74.62
2018-10-09T12:33:38.234Z,76.25
2018-10-09T12:34:46.312Z,73.75
2018-10-09T12:35:54.380Z,73.37
2018-10-09T12:37:02.462Z,72.73
2018-10-09T12:38:10.536Z,74.08
2018-10-09T12:39:18.594Z,75.42
2018-10-09T12:40:26.644Z,75.32
2018-10-09T12:41:34.726Z,74.08
2018-10-09T12:42:42.814Z,74.85
2018-10-09T12:43:50.950Z,75.32
2018-10-09T12:44:58.930Z,73.88
2018-10-09T12:46:07.023Z,73.79
2018-10-09T12:47:15.064Z,73.21
2018-10-09T12:48:23.144Z,73.75
2018-10-09T12:49:31.187Z,73.66
2018-10-09T12:50:39.290Z,75.77
2018-10-09T12:51:47.347Z,74.81
2018-10-09T12:52:55.462Z,73.56
2018-10-09T12:54:03.489Z,74.04
2018-10-09T12:55:11.575Z,74.33
2018-10-09T12:56:19.628Z,74.23
2018-10-09T12:57:27.792Z,74.33
2018-10-09T12:58:35.808Z,75.20
2018-10-09T12:59:43.820Z,73.46
2018-10-09T13:00:51.913Z,74.43
2018-10-09T13:01:59.967Z,75.67
2018-10-09T13:03:08.106Z,75.87
2018-10-09T13:04:16.079Z,73.85
2018-10-09T13:05:24.159Z,75.48
2018-10-09T13:06:32.240Z,77.31
2018-10-09T13:07:40.300Z,76.19
2018-10-09T13:08:48.380Z,76.29
2018-10-09T13:09:56.424Z,74.55
2018-10-09T13:11:04.506Z,73.69
2018-10-09T13:12:12.586Z,74.75
2018-10-09T13:13:20.653Z,73.21
2018-10-09T13:14:28.715Z,74.75
2018-10-09T13:15:36.776Z,74.62
2018-10-09T13:16:44.848Z,73.41
2018-10-09T13:17:52.931Z,74.65
2018-10-09T13:19:01.007Z,74.08
2018-10-09T13:20:09.063Z,74.17
2018-10-09T13:21:17.318Z,76.86
2018-10-09T13:22:25.499Z,76.19
2018-10-09T13:23:33.282Z,75.23
2018-10-09T13:24:41.346Z,73.79
2018-10-09T13:25:49.423Z,72.83
2018-10-09T13:26:57.494Z,72.92
2018-10-09T13:28:05.552Z,72.73
2018-10-09T13:29:13.624Z,73.88
2018-10-09T13:30:21.674Z,74.37
2018-10-09T13:31:29.759Z,74.37
2018-10-09T13:32:37.830Z,73.31
2018-10-09T13:33:45.878Z,74.75
2018-10-09T13:34:53.971Z,73.92
2018-10-09T13:36:02.046Z,72.77
2018-10-09T13:37:10.108Z,72.77
2018-10-09T13:38:18.301Z,72.48
2018-10-09T13:39:26.221Z,73.69
2018-10-09T13:40:34.299Z,74.75
2018-10-09T13:41:42.377Z,76.00
2018-10-09T13:42:50.440Z,74.98
2018-10-09T13:43:58.611Z,75.42
2018-10-09T13:45:06.571Z,73.35
2018-10-09T13:46:14.643Z,72.77
2018-10-09T13:47:22.789Z,73.83
2018-10-09T13:48:30.795Z,75.27
2018-10-09T13:49:38.853Z,73.25
2018-10-09T13:50:46.911Z,74.02
2018-10-09T13:51:55.033Z,74.60
2018-10-09T13:53:03.062Z,74.40
2018-10-09T13:54:11.134Z,72.19
2018-10-09T13:55:19.383Z,73.69
2018-10-09T13:56:27.268Z,73.60
2018-10-09T13:57:35.337Z,75.32
2018-10-09T13:58:43.393Z,73.79
2018-10-09T13:59:51.470Z,73.83
2018-10-09T14:00:59.545Z,73.25
2018-10-09T14:02:07.614Z,73.35
2018-10-09T14:03:15.671Z,73.44
2018-10-09T14:04:23.753Z,72.58
2018-10-09T14:05:31.818Z,73.11
2018-10-09T14:06:39.890Z,73.79
2018-10-09T14:07:47.952Z,74.94
2018-10-09T14:08:55.987Z,75.17
2018-10-09T14:10:04.168Z,74.50
2018-10-09T14:11:12.163Z,75.65
2018-10-09T14:12:20.228Z,76.14
2018-10-09T14:13:28.288Z,75.65
2018-10-09T14:14:36.341Z,75.37
2018-10-09T14:15:44.433Z,75.75
2018-10-09T14:16:52.507Z,74.88
2018-10-09T14:18:00.578Z,76.32
2018-10-09T14:19:08.647Z,76.71
2018-10-09T14:20:16.695Z,75.07
2018-10-09T14:21:24.764Z,75.17
2018-10-09T14:22:33.249Z,75.56
2018-10-09T14:23:40.912Z,74.40
2018-10-09T14:24:48.989Z,73.63
2018-10-09T14:25:57.044Z,73.31
2018-10-09T14:27:05.132Z,75.71
2018-10-09T14:28:13.196Z,74.79
2018-10-09T14:29:21.258Z,75.04
2018-10-09T14:30:29.343Z,76.00
2018-10-09T14:31:37.402Z,75.71
2018-10-09T14:32:45.462Z,75.90
2018-10-09T14:33:53.532Z,74.75
2018-10-09T14:35:01.666Z,76.19
2018-10-09T14:36:09.681Z,75.62
2018-10-09T14:37:17.733Z,76.57
2018-10-09T14:38:25.802Z,76.09
2018-10-09T14:39:33.883Z,76.67
2018-10-09T14:40:41.951Z,76.09
2018-10-09T14:41:50.044Z,76.57
2018-10-09T14:42:58.074Z,75.90
2018-10-09T14:44:06.296Z,76.86
2018-10-09T14:45:14.212Z,76.54
2018-10-09T14:46:22.283Z,77.50
2018-10-09T14:47:30.366Z,78.17
2018-10-09T14:48:38.422Z,78.65